sensor_id;sensor_type;location;lat;lon;timestamp;P1;durP1;ratioP1;P2;durP2;ratioP2
58468;SDS011;44257;44.804;10.220;2024-02-16T00:00:24;44.83;;;30.70;;
58468;SDS011;44257;44.804;10.220;2024-02-16T00:02:51;42.58;;;29.73;;
58468;SDS011;44257;44.804;10.220;2024-02-16T00:05:17;42.20;;;30.25;;
58468;SDS011;44257;44.804;10.220;2024-02-16T00:07:43;42.53;;;29.33;;
58468;SDS011;44257;44.804;10.220;2024-02-16T00:10:09;45.20;;;31.10;;
58468;SDS011;44257;44.804;10.220;2024-02-16T00:12:37;45.97;;;29.33;;
58468;SDS011;44257;44.804;10.220;2024-02-16T00:15:03;44.35;;;28.52;;
58468;SDS011;44257;44.804;10.220;2024-02-16T00:17:29;45.08;;;29.55;;
58468;SDS011;44257;44.804;10.220;2024-02-16T00:19:55;47.42;;;30.58;;
58468;SDS011;44257;44.804;10.220;2024-02-16T00:22:22;48.53;;;30.73;;
58468;SDS011;44257;44.804;10.220;2024-02-16T00:24:48;44.85;;;31.77;;
58468;SDS011;44257;44.804;10.220;2024-02-16T00:27:14;44.50;;;31.88;;
58468;SDS011;44257;44.804;10.220;2024-02-16T00:29:41;44.63;;;30.60;;
58468;SDS011;44257;44.804;10.220;2024-02-16T00:32:08;46.92;;;28.80;;
58468;SDS011;44257;44.804;10.220;2024-02-16T00:34:35;44.45;;;29.95;;
58468;SDS011;44257;44.804;10.220;2024-02-16T00:37:02;40.95;;;29.20;;
58468;SDS011;44257;44.804;10.220;2024-02-16T00:39:30;42.13;;;28.33;;
58468;SDS011;44257;44.804;10.220;2024-02-16T00:41:56;41.88;;;29.48;;
58468;SDS011;44257;44.804;10.220;2024-02-16T00:44:22;40.72;;;29.10;;
58468;SDS011;44257;44.804;10.220;2024-02-16T00:46:47;42.90;;;29.55;;
58468;SDS011;44257;44.804;10.220;2024-02-16T00:49:13;45.67;;;28.88;;
58468;SDS011;44257;44.804;10.220;2024-02-16T00:51:40;40.78;;;28.00;;
58468;SDS011;44257;44.804;10.220;2024-02-16T00:54:06;43.60;;;27.38;;
58468;SDS011;44257;44.804;10.220;2024-02-16T00:56:32;39.80;;;28.17;;
58468;SDS011;44257;44.804;10.220;2024-02-16T00:58:58;41.40;;;27.45;;
58468;SDS011;44257;44.804;10.220;2024-02-16T01:01:24;37.10;;;27.75;;
58468;SDS011;44257;44.804;10.220;2024-02-16T01:03:54;40.42;;;27.27;;
58468;SDS011;44257;44.804;10.220;2024-02-16T01:06:20;41.92;;;27.38;;
58468;SDS011;44257;44.804;10.220;2024-02-16T01:08:46;41.40;;;27.65;;
58468;SDS011;44257;44.804;10.220;2024-02-16T01:11:12;39.70;;;27.55;;
58468;SDS011;44257;44.804;10.220;2024-02-16T01:13:41;36.97;;;27.23;;
58468;SDS011;44257;44.804;10.220;2024-02-16T01:16:08;40.00;;;26.73;;
58468;SDS011;44257;44.804;10.220;2024-02-16T01:18:35;40.38;;;28.10;;
58468;SDS011;44257;44.804;10.220;2024-02-16T01:21:02;37.60;;;26.17;;
58468;SDS011;44257;44.804;10.220;2024-02-16T01:23:29;37.92;;;25.85;;
58468;SDS011;44257;44.804;10.220;2024-02-16T01:25:55;39.30;;;26.85;;
58468;SDS011;44257;44.804;10.220;2024-02-16T01:28:21;37.28;;;25.83;;
58468;SDS011;44257;44.804;10.220;2024-02-16T01:30:48;42.63;;;26.20;;
58468;SDS011;44257;44.804;10.220;2024-02-16T01:33:14;37.42;;;25.13;;
58468;SDS011;44257;44.804;10.220;2024-02-16T01:35:40;37.78;;;25.20;;
58468;SDS011;44257;44.804;10.220;2024-02-16T01:38:06;41.63;;;25.75;;
58468;SDS011;44257;44.804;10.220;2024-02-16T01:40:32;38.92;;;26.33;;
58468;SDS011;44257;44.804;10.220;2024-02-16T01:42:58;37.08;;;25.17;;
58468;SDS011;44257;44.804;10.220;2024-02-16T01:45:24;36.90;;;24.92;;
58468;SDS011;44257;44.804;10.220;2024-02-16T01:47:50;41.65;;;26.83;;
58468;SDS011;44257;44.804;10.220;2024-02-16T01:50:17;41.95;;;26.63;;
58468;SDS011;44257;44.804;10.220;2024-02-16T01:52:44;40.78;;;26.70;;
58468;SDS011;44257;44.804;10.220;2024-02-16T01:55:11;42.95;;;29.15;;
58468;SDS011;44257;44.804;10.220;2024-02-16T01:57:38;38.30;;;27.02;;
58468;SDS011;44257;44.804;10.220;2024-02-16T02:00:05;39.92;;;28.00;;
58468;SDS011;44257;44.804;10.220;2024-02-16T02:02:35;43.53;;;27.98;;
58468;SDS011;44257;44.804;10.220;2024-02-16T02:05:02;42.38;;;28.10;;
58468;SDS011;44257;44.804;10.220;2024-02-16T02:07:28;44.78;;;29.48;;
58468;SDS011;44257;44.804;10.220;2024-02-16T02:09:55;42.90;;;28.58;;
58468;SDS011;44257;44.804;10.220;2024-02-16T02:12:21;44.65;;;29.58;;
58468;SDS011;44257;44.804;10.220;2024-02-16T02:14:50;45.92;;;28.90;;
58468;SDS011;44257;44.804;10.220;2024-02-16T02:17:17;42.17;;;28.40;;
58468;SDS011;44257;44.804;10.220;2024-02-16T02:19:44;39.78;;;27.52;;
58468;SDS011;44257;44.804;10.220;2024-02-16T02:22:15;41.72;;;27.85;;
58468;SDS011;44257;44.804;10.220;2024-02-16T02:24:43;41.55;;;27.77;;
58468;SDS011;44257;44.804;10.220;2024-02-16T02:27:09;49.28;;;30.42;;
58468;SDS011;44257;44.804;10.220;2024-02-16T02:29:35;52.58;;;33.92;;
58468;SDS011;44257;44.804;10.220;2024-02-16T02:32:01;51.95;;;35.08;;
58468;SDS011;44257;44.804;10.220;2024-02-16T02:34:27;53.13;;;34.13;;
58468;SDS011;44257;44.804;10.220;2024-02-16T02:36:53;55.10;;;35.53;;
58468;SDS011;44257;44.804;10.220;2024-02-16T02:39:19;54.50;;;35.97;;
58468;SDS011;44257;44.804;10.220;2024-02-16T02:41:44;57.05;;;37.97;;
58468;SDS011;44257;44.804;10.220;2024-02-16T02:44:10;61.35;;;43.15;;
58468;SDS011;44257;44.804;10.220;2024-02-16T02:46:36;65.50;;;44.58;;
58468;SDS011;44257;44.804;10.220;2024-02-16T02:49:02;70.68;;;46.45;;
58468;SDS011;44257;44.804;10.220;2024-02-16T02:51:29;72.68;;;47.20;;
58468;SDS011;44257;44.804;10.220;2024-02-16T02:53:55;70.80;;;48.05;;
58468;SDS011;44257;44.804;10.220;2024-02-16T02:56:21;70.22;;;46.78;;
58468;SDS011;44257;44.804;10.220;2024-02-16T02:58:47;78.60;;;53.10;;
58468;SDS011;44257;44.804;10.220;2024-02-16T03:01:13;79.13;;;53.53;;
58468;SDS011;44257;44.804;10.220;2024-02-16T03:03:40;85.75;;;55.53;;
58468;SDS011;44257;44.804;10.220;2024-02-16T03:06:06;82.85;;;53.92;;
58468;SDS011;44257;44.804;10.220;2024-02-16T03:08:32;85.82;;;53.97;;
58468;SDS011;44257;44.804;10.220;2024-02-16T03:10:58;79.57;;;52.15;;
58468;SDS011;44257;44.804;10.220;2024-02-16T03:13:29;87.20;;;57.05;;
58468;SDS011;44257;44.804;10.220;2024-02-16T03:15:55;81.47;;;54.47;;
58468;SDS011;44257;44.804;10.220;2024-02-16T03:18:21;89.88;;;57.63;;
58468;SDS011;44257;44.804;10.220;2024-02-16T03:20:47;91.07;;;58.53;;
58468;SDS011;44257;44.804;10.220;2024-02-16T03:23:16;96.13;;;63.08;;
58468;SDS011;44257;44.804;10.220;2024-02-16T03:25:41;100.22;;;61.75;;
58468;SDS011;44257;44.804;10.220;2024-02-16T03:28:09;99.47;;;63.83;;
58468;SDS011;44257;44.804;10.220;2024-02-16T03:30:39;99.82;;;66.38;;
58468;SDS011;44257;44.804;10.220;2024-02-16T03:33:05;100.38;;;65.72;;
58468;SDS011;44257;44.804;10.220;2024-02-16T03:35:31;98.80;;;64.65;;
58468;SDS011;44257;44.804;10.220;2024-02-16T03:37:57;96.25;;;62.40;;
58468;SDS011;44257;44.804;10.220;2024-02-16T03:40:23;96.00;;;63.63;;
58468;SDS011;44257;44.804;10.220;2024-02-16T03:42:52;99.93;;;65.38;;
58468;SDS011;44257;44.804;10.220;2024-02-16T03:45:18;99.20;;;64.88;;
58468;SDS011;44257;44.804;10.220;2024-02-16T03:47:44;93.65;;;63.22;;
58468;SDS011;44257;44.804;10.220;2024-02-16T03:50:10;94.88;;;64.78;;
58468;SDS011;44257;44.804;10.220;2024-02-16T03:52:36;97.50;;;62.97;;
58468;SDS011;44257;44.804;10.220;2024-02-16T03:55:03;98.72;;;64.20;;
58468;SDS011;44257;44.804;10.220;2024-02-16T03:57:30;101.85;;;64.25;;
58468;SDS011;44257;44.804;10.220;2024-02-16T03:59:56;89.60;;;60.67;;
58468;SDS011;44257;44.804;10.220;2024-02-16T04:02:22;94.25;;;61.53;;
58468;SDS011;44257;44.804;10.220;2024-02-16T04:04:48;93.07;;;61.17;;
58468;SDS011;44257;44.804;10.220;2024-02-16T04:07:14;97.90;;;59.55;;
58468;SDS011;44257;44.804;10.220;2024-02-16T04:09:41;93.95;;;59.80;;
58468;SDS011;44257;44.804;10.220;2024-02-16T04:12:07;94.57;;;62.28;;
58468;SDS011;44257;44.804;10.220;2024-02-16T04:14:33;89.55;;;56.40;;
58468;SDS011;44257;44.804;10.220;2024-02-16T04:16:59;82.55;;;54.38;;
58468;SDS011;44257;44.804;10.220;2024-02-16T04:19:25;84.13;;;54.90;;
58468;SDS011;44257;44.804;10.220;2024-02-16T04:21:51;70.90;;;49.03;;
58468;SDS011;44257;44.804;10.220;2024-02-16T04:24:17;73.38;;;48.92;;
58468;SDS011;44257;44.804;10.220;2024-02-16T04:26:44;68.60;;;46.33;;
58468;SDS011;44257;44.804;10.220;2024-02-16T04:29:10;74.20;;;47.95;;
58468;SDS011;44257;44.804;10.220;2024-02-16T04:31:40;75.05;;;50.08;;
58468;SDS011;44257;44.804;10.220;2024-02-16T04:34:09;75.70;;;48.15;;
58468;SDS011;44257;44.804;10.220;2024-02-16T04:36:35;74.50;;;48.88;;
58468;SDS011;44257;44.804;10.220;2024-02-16T04:39:01;80.60;;;51.20;;
58468;SDS011;44257;44.804;10.220;2024-02-16T04:41:27;88.15;;;54.22;;
58468;SDS011;44257;44.804;10.220;2024-02-16T04:43:53;91.57;;;56.90;;
58468;SDS011;44257;44.804;10.220;2024-02-16T04:46:19;94.75;;;57.63;;
58468;SDS011;44257;44.804;10.220;2024-02-16T04:48:46;94.93;;;58.00;;
58468;SDS011;44257;44.804;10.220;2024-02-16T04:51:12;95.88;;;59.67;;
58468;SDS011;44257;44.804;10.220;2024-02-16T04:53:38;97.28;;;59.42;;
58468;SDS011;44257;44.804;10.220;2024-02-16T04:56:04;93.72;;;55.35;;
58468;SDS011;44257;44.804;10.220;2024-02-16T04:58:30;86.82;;;54.13;;
58468;SDS011;44257;44.804;10.220;2024-02-16T05:00:59;86.63;;;51.15;;
58468;SDS011;44257;44.804;10.220;2024-02-16T05:03:25;84.28;;;52.22;;
58468;SDS011;44257;44.804;10.220;2024-02-16T05:05:51;82.05;;;50.45;;
58468;SDS011;44257;44.804;10.220;2024-02-16T05:08:22;78.25;;;50.75;;
58468;SDS011;44257;44.804;10.220;2024-02-16T05:10:48;82.82;;;50.85;;
58468;SDS011;44257;44.804;10.220;2024-02-16T05:13:14;71.38;;;45.20;;
58468;SDS011;44257;44.804;10.220;2024-02-16T05:15:40;77.72;;;47.35;;
58468;SDS011;44257;44.804;10.220;2024-02-16T05:18:05;72.18;;;44.90;;
58468;SDS011;44257;44.804;10.220;2024-02-16T05:20:32;70.88;;;42.72;;
58468;SDS011;44257;44.804;10.220;2024-02-16T05:22:58;64.18;;;38.90;;
58468;SDS011;44257;44.804;10.220;2024-02-16T05:25:23;63.15;;;38.97;;
58468;SDS011;44257;44.804;10.220;2024-02-16T05:27:49;59.80;;;38.50;;
58468;SDS011;44257;44.804;10.220;2024-02-16T05:30:15;56.03;;;36.53;;
58468;SDS011;44257;44.804;10.220;2024-02-16T05:32:41;54.50;;;35.33;;
58468;SDS011;44257;44.804;10.220;2024-02-16T05:35:08;56.25;;;35.00;;
58468;SDS011;44257;44.804;10.220;2024-02-16T05:37:38;52.58;;;33.05;;
58468;SDS011;44257;44.804;10.220;2024-02-16T05:40:13;53.67;;;34.17;;
58468;SDS011;44257;44.804;10.220;2024-02-16T05:42:56;48.10;;;30.60;;
58468;SDS011;44257;44.804;10.220;2024-02-16T05:45:26;48.92;;;31.10;;
58468;SDS011;44257;44.804;10.220;2024-02-16T05:47:52;45.38;;;30.77;;
58468;SDS011;44257;44.804;10.220;2024-02-16T05:50:19;45.55;;;29.35;;
58468;SDS011;44257;44.804;10.220;2024-02-16T05:52:46;45.58;;;28.75;;
58468;SDS011;44257;44.804;10.220;2024-02-16T05:55:12;42.75;;;28.05;;
58468;SDS011;44257;44.804;10.220;2024-02-16T05:57:43;43.50;;;28.40;;
58468;SDS011;44257;44.804;10.220;2024-02-16T06:00:09;42.58;;;26.27;;
58468;SDS011;44257;44.804;10.220;2024-02-16T06:02:36;44.20;;;26.30;;
58468;SDS011;44257;44.804;10.220;2024-02-16T06:05:02;48.38;;;27.90;;
58468;SDS011;44257;44.804;10.220;2024-02-16T06:07:30;45.88;;;27.70;;
58468;SDS011;44257;44.804;10.220;2024-02-16T06:09:56;45.40;;;28.17;;
58468;SDS011;44257;44.804;10.220;2024-02-16T06:12:23;43.60;;;27.73;;
58468;SDS011;44257;44.804;10.220;2024-02-16T06:14:49;43.05;;;27.45;;
58468;SDS011;44257;44.804;10.220;2024-02-16T06:17:16;43.03;;;26.27;;
58468;SDS011;44257;44.804;10.220;2024-02-16T06:19:42;41.55;;;26.58;;
58468;SDS011;44257;44.804;10.220;2024-02-16T06:22:09;38.45;;;23.80;;
58468;SDS011;44257;44.804;10.220;2024-02-16T06:24:35;37.85;;;24.77;;
58468;SDS011;44257;44.804;10.220;2024-02-16T06:27:01;37.95;;;24.23;;
58468;SDS011;44257;44.804;10.220;2024-02-16T06:29:28;43.45;;;25.15;;
58468;SDS011;44257;44.804;10.220;2024-02-16T06:31:55;44.45;;;24.88;;
58468;SDS011;44257;44.804;10.220;2024-02-16T06:34:22;33.28;;;22.20;;
58468;SDS011;44257;44.804;10.220;2024-02-16T06:36:47;41.22;;;22.40;;
58468;SDS011;44257;44.804;10.220;2024-02-16T06:39:14;34.13;;;22.73;;
58468;SDS011;44257;44.804;10.220;2024-02-16T06:41:45;36.00;;;22.20;;
58468;SDS011;44257;44.804;10.220;2024-02-16T06:44:12;33.17;;;21.13;;
58468;SDS011;44257;44.804;10.220;2024-02-16T06:46:38;35.30;;;20.90;;
58468;SDS011;44257;44.804;10.220;2024-02-16T06:49:05;35.75;;;22.15;;
58468;SDS011;44257;44.804;10.220;2024-02-16T06:51:31;36.58;;;20.88;;
58468;SDS011;44257;44.804;10.220;2024-02-16T06:53:56;34.65;;;21.17;;
58468;SDS011;44257;44.804;10.220;2024-02-16T06:56:22;30.80;;;19.80;;
58468;SDS011;44257;44.804;10.220;2024-02-16T06:58:49;28.02;;;19.58;;
58468;SDS011;44257;44.804;10.220;2024-02-16T07:01:15;30.60;;;18.42;;
58468;SDS011;44257;44.804;10.220;2024-02-16T07:03:43;28.65;;;18.15;;
58468;SDS011;44257;44.804;10.220;2024-02-16T07:06:09;29.23;;;18.40;;
58468;SDS011;44257;44.804;10.220;2024-02-16T07:08:40;25.45;;;17.80;;
58468;SDS011;44257;44.804;10.220;2024-02-16T07:11:06;23.73;;;17.08;;
58468;SDS011;44257;44.804;10.220;2024-02-16T07:13:33;27.42;;;16.42;;
58468;SDS011;44257;44.804;10.220;2024-02-16T07:15:59;25.30;;;16.83;;
58468;SDS011;44257;44.804;10.220;2024-02-16T07:18:25;21.63;;;15.73;;
58468;SDS011;44257;44.804;10.220;2024-02-16T07:20:51;24.88;;;16.23;;
58468;SDS011;44257;44.804;10.220;2024-02-16T07:23:17;24.02;;;15.15;;
58468;SDS011;44257;44.804;10.220;2024-02-16T07:25:43;24.17;;;15.38;;
58468;SDS011;44257;44.804;10.220;2024-02-16T07:28:09;24.63;;;15.80;;
58468;SDS011;44257;44.804;10.220;2024-02-16T07:30:35;21.55;;;15.15;;
58468;SDS011;44257;44.804;10.220;2024-02-16T07:33:04;24.13;;;14.10;;
58468;SDS011;44257;44.804;10.220;2024-02-16T07:35:32;19.50;;;13.00;;
58468;SDS011;44257;44.804;10.220;2024-02-16T07:38:01;19.83;;;11.57;;
58468;SDS011;44257;44.804;10.220;2024-02-16T07:40:28;19.95;;;12.00;;
58468;SDS011;44257;44.804;10.220;2024-02-16T07:42:54;20.45;;;12.93;;
58468;SDS011;44257;44.804;10.220;2024-02-16T07:45:20;21.70;;;12.15;;
58468;SDS011;44257;44.804;10.220;2024-02-16T07:47:46;19.58;;;13.23;;
58468;SDS011;44257;44.804;10.220;2024-02-16T07:50:12;20.60;;;14.05;;
58468;SDS011;44257;44.804;10.220;2024-02-16T07:52:38;21.35;;;13.02;;
58468;SDS011;44257;44.804;10.220;2024-02-16T07:55:05;24.40;;;14.85;;
58468;SDS011;44257;44.804;10.220;2024-02-16T07:57:31;22.50;;;14.10;;
58468;SDS011;44257;44.804;10.220;2024-02-16T07:59:57;22.42;;;14.98;;
58468;SDS011;44257;44.804;10.220;2024-02-16T08:02:23;22.30;;;15.95;;
58468;SDS011;44257;44.804;10.220;2024-02-16T08:04:49;22.50;;;15.77;;
58468;SDS011;44257;44.804;10.220;2024-02-16T08:07:16;24.05;;;15.93;;
58468;SDS011;44257;44.804;10.220;2024-02-16T08:09:45;22.58;;;16.38;;
58468;SDS011;44257;44.804;10.220;2024-02-16T08:12:12;26.70;;;16.85;;
58468;SDS011;44257;44.804;10.220;2024-02-16T08:14:38;24.00;;;17.40;;
58468;SDS011;44257;44.804;10.220;2024-02-16T08:17:08;25.67;;;17.75;;
58468;SDS011;44257;44.804;10.220;2024-02-16T08:19:35;29.10;;;18.23;;
58468;SDS011;44257;44.804;10.220;2024-02-16T08:22:05;30.20;;;20.30;;
58468;SDS011;44257;44.804;10.220;2024-02-16T08:24:36;33.03;;;22.58;;
58468;SDS011;44257;44.804;10.220;2024-02-16T08:27:03;41.53;;;22.33;;
58468;SDS011;44257;44.804;10.220;2024-02-16T08:29:29;46.08;;;22.83;;
58468;SDS011;44257;44.804;10.220;2024-02-16T08:31:55;44.17;;;24.13;;
58468;SDS011;44257;44.804;10.220;2024-02-16T08:34:21;34.67;;;24.23;;
58468;SDS011;44257;44.804;10.220;2024-02-16T08:36:48;42.03;;;29.17;;
58468;SDS011;44257;44.804;10.220;2024-02-16T08:39:15;41.83;;;30.02;;
58468;SDS011;44257;44.804;10.220;2024-02-16T08:41:41;44.15;;;32.30;;
58468;SDS011;44257;44.804;10.220;2024-02-16T08:44:09;43.35;;;32.20;;
58468;SDS011;44257;44.804;10.220;2024-02-16T08:46:36;44.25;;;33.08;;
58468;SDS011;44257;44.804;10.220;2024-02-16T08:49:02;44.40;;;31.52;;
58468;SDS011;44257;44.804;10.220;2024-02-16T08:51:28;43.40;;;31.63;;
58468;SDS011;44257;44.804;10.220;2024-02-16T08:53:54;46.20;;;32.17;;
58468;SDS011;44257;44.804;10.220;2024-02-16T08:56:20;42.55;;;31.90;;
58468;SDS011;44257;44.804;10.220;2024-02-16T08:58:46;47.45;;;34.75;;
58468;SDS011;44257;44.804;10.220;2024-02-16T09:01:12;48.33;;;38.15;;
58468;SDS011;44257;44.804;10.220;2024-02-16T09:03:38;49.85;;;38.70;;
58468;SDS011;44257;44.804;10.220;2024-02-16T09:06:05;46.97;;;38.42;;
58468;SDS011;44257;44.804;10.220;2024-02-16T09:08:31;49.00;;;38.83;;
58468;SDS011;44257;44.804;10.220;2024-02-16T09:11:00;48.75;;;38.40;;
58468;SDS011;44257;44.804;10.220;2024-02-16T09:13:33;53.47;;;41.13;;
58468;SDS011;44257;44.804;10.220;2024-02-16T09:16:01;52.75;;;40.95;;
58468;SDS011;44257;44.804;10.220;2024-02-16T09:18:37;55.95;;;40.72;;
58468;SDS011;44257;44.804;10.220;2024-02-16T09:21:05;57.08;;;43.30;;
58468;SDS011;44257;44.804;10.220;2024-02-16T09:23:32;56.40;;;44.35;;
58468;SDS011;44257;44.804;10.220;2024-02-16T09:25:58;58.33;;;44.58;;
58468;SDS011;44257;44.804;10.220;2024-02-16T09:28:25;63.63;;;47.58;;
58468;SDS011;44257;44.804;10.220;2024-02-16T09:30:51;60.92;;;47.65;;
58468;SDS011;44257;44.804;10.220;2024-02-16T09:33:17;63.85;;;48.03;;
58468;SDS011;44257;44.804;10.220;2024-02-16T09:35:43;64.32;;;49.10;;
58468;SDS011;44257;44.804;10.220;2024-02-16T09:38:09;67.55;;;49.65;;
58468;SDS011;44257;44.804;10.220;2024-02-16T09:40:36;68.90;;;50.60;;
58468;SDS011;44257;44.804;10.220;2024-02-16T09:43:02;63.58;;;48.72;;
58468;SDS011;44257;44.804;10.220;2024-02-16T09:45:28;68.55;;;49.47;;
58468;SDS011;44257;44.804;10.220;2024-02-16T09:47:55;66.22;;;46.75;;
58468;SDS011;44257;44.804;10.220;2024-02-16T09:50:22;67.05;;;51.80;;
58468;SDS011;44257;44.804;10.220;2024-02-16T09:52:49;67.97;;;51.30;;
58468;SDS011;44257;44.804;10.220;2024-02-16T09:55:16;67.63;;;50.60;;
58468;SDS011;44257;44.804;10.220;2024-02-16T09:57:44;67.15;;;51.55;;
58468;SDS011;44257;44.804;10.220;2024-02-16T10:00:11;65.22;;;51.28;;
58468;SDS011;44257;44.804;10.220;2024-02-16T10:05:17;68.35;;;52.67;;
58468;SDS011;44257;44.804;10.220;2024-02-16T10:07:44;67.53;;;52.20;;
58468;SDS011;44257;44.804;10.220;2024-02-16T10:10:20;68.47;;;52.85;;
58468;SDS011;44257;44.804;10.220;2024-02-16T10:12:47;68.40;;;52.75;;
58468;SDS011;44257;44.804;10.220;2024-02-16T10:15:22;65.82;;;51.67;;
58468;SDS011;44257;44.804;10.220;2024-02-16T10:18:02;62.88;;;48.42;;
58468;SDS011;44257;44.804;10.220;2024-02-16T10:20:30;62.95;;;48.67;;
58468;SDS011;44257;44.804;10.220;2024-02-16T10:23:06;71.30;;;52.47;;
58468;SDS011;44257;44.804;10.220;2024-02-16T10:25:37;72.85;;;55.10;;
58468;SDS011;44257;44.804;10.220;2024-02-16T10:28:09;67.15;;;54.15;;
58468;SDS011;44257;44.804;10.220;2024-02-16T10:30:39;66.07;;;50.88;;
58468;SDS011;44257;44.804;10.220;2024-02-16T10:33:07;72.80;;;55.13;;
58468;SDS011;44257;44.804;10.220;2024-02-16T10:35:34;71.32;;;55.35;;
58468;SDS011;44257;44.804;10.220;2024-02-16T10:38:02;74.85;;;58.33;;
58468;SDS011;44257;44.804;10.220;2024-02-16T10:40:41;73.60;;;56.15;;
58468;SDS011;44257;44.804;10.220;2024-02-16T10:43:08;77.95;;;57.50;;
58468;SDS011;44257;44.804;10.220;2024-02-16T10:45:35;72.85;;;57.45;;
58468;SDS011;44257;44.804;10.220;2024-02-16T10:48:05;72.10;;;58.50;;
58468;SDS011;44257;44.804;10.220;2024-02-16T10:50:33;75.35;;;59.60;;
58468;SDS011;44257;44.804;10.220;2024-02-16T10:55:49;74.28;;;59.35;;
58468;SDS011;44257;44.804;10.220;2024-02-16T10:58:16;73.95;;;60.03;;
58468;SDS011;44257;44.804;10.220;2024-02-16T11:03:23;77.15;;;59.65;;
58468;SDS011;44257;44.804;10.220;2024-02-16T11:05:53;77.55;;;60.20;;
58468;SDS011;44257;44.804;10.220;2024-02-16T11:08:20;81.18;;;62.13;;
58468;SDS011;44257;44.804;10.220;2024-02-16T11:10:59;74.53;;;59.40;;
58468;SDS011;44257;44.804;10.220;2024-02-16T11:13:28;77.45;;;61.15;;
58468;SDS011;44257;44.804;10.220;2024-02-16T11:16:01;77.00;;;61.55;;
58468;SDS011;44257;44.804;10.220;2024-02-16T11:18:29;73.75;;;59.55;;
58468;SDS011;44257;44.804;10.220;2024-02-16T11:20:55;75.80;;;59.78;;
58468;SDS011;44257;44.804;10.220;2024-02-16T11:23:29;76.05;;;61.15;;
58468;SDS011;44257;44.804;10.220;2024-02-16T11:26:00;73.72;;;60.30;;
58468;SDS011;44257;44.804;10.220;2024-02-16T11:28:32;81.60;;;64.88;;
58468;SDS011;44257;44.804;10.220;2024-02-16T11:31:02;79.70;;;64.13;;
58468;SDS011;44257;44.804;10.220;2024-02-16T11:33:29;78.80;;;63.95;;
58468;SDS011;44257;44.804;10.220;2024-02-16T11:35:56;78.03;;;63.38;;
58468;SDS011;44257;44.804;10.220;2024-02-16T11:38:26;80.03;;;64.43;;
58468;SDS011;44257;44.804;10.220;2024-02-16T11:40:53;80.65;;;63.55;;
58468;SDS011;44257;44.804;10.220;2024-02-16T11:43:23;80.25;;;65.13;;
58468;SDS011;44257;44.804;10.220;2024-02-16T11:45:50;82.72;;;67.22;;
58468;SDS011;44257;44.804;10.220;2024-02-16T11:48:20;77.57;;;64.03;;
58468;SDS011;44257;44.804;10.220;2024-02-16T11:50:58;85.57;;;68.13;;
58468;SDS011;44257;44.804;10.220;2024-02-16T11:53:26;77.47;;;63.15;;
58468;SDS011;44257;44.804;10.220;2024-02-16T11:55:52;86.85;;;67.28;;
58468;SDS011;44257;44.804;10.220;2024-02-16T11:58:20;86.47;;;64.47;;
58468;SDS011;44257;44.804;10.220;2024-02-16T12:00:47;83.70;;;63.88;;
58468;SDS011;44257;44.804;10.220;2024-02-16T12:05:57;86.03;;;67.60;;
58468;SDS011;44257;44.804;10.220;2024-02-16T12:08:31;87.43;;;65.25;;
58468;SDS011;44257;44.804;10.220;2024-02-16T12:10:58;84.43;;;65.28;;
58468;SDS011;44257;44.804;10.220;2024-02-16T12:13:24;86.57;;;65.78;;
58468;SDS011;44257;44.804;10.220;2024-02-16T12:15:51;84.15;;;65.60;;
58468;SDS011;44257;44.804;10.220;2024-02-16T12:18:23;84.47;;;64.80;;
58468;SDS011;44257;44.804;10.220;2024-02-16T12:21:02;80.68;;;63.22;;
58468;SDS011;44257;44.804;10.220;2024-02-16T12:23:33;81.50;;;62.80;;
58468;SDS011;44257;44.804;10.220;2024-02-16T12:25:59;88.13;;;64.57;;
58468;SDS011;44257;44.804;10.220;2024-02-16T12:28:26;86.45;;;66.38;;
58468;SDS011;44257;44.804;10.220;2024-02-16T12:30:54;86.53;;;65.20;;
58468;SDS011;44257;44.804;10.220;2024-02-16T12:33:21;78.97;;;64.30;;
58468;SDS011;44257;44.804;10.220;2024-02-16T12:35:47;80.85;;;64.18;;
58468;SDS011;44257;44.804;10.220;2024-02-16T12:38:13;86.53;;;66.18;;
58468;SDS011;44257;44.804;10.220;2024-02-16T12:40:42;81.57;;;64.88;;
58468;SDS011;44257;44.804;10.220;2024-02-16T12:43:12;85.10;;;67.13;;
58468;SDS011;44257;44.804;10.220;2024-02-16T12:45:39;81.60;;;65.10;;
58468;SDS011;44257;44.804;10.220;2024-02-16T12:48:05;90.15;;;66.32;;
58468;SDS011;44257;44.804;10.220;2024-02-16T12:50:31;91.55;;;66.05;;
58468;SDS011;44257;44.804;10.220;2024-02-16T12:52:57;90.20;;;66.47;;
58468;SDS011;44257;44.804;10.220;2024-02-16T12:55:24;87.93;;;65.05;;
58468;SDS011;44257;44.804;10.220;2024-02-16T12:57:50;87.07;;;64.85;;
58468;SDS011;44257;44.804;10.220;2024-02-16T13:00:16;82.10;;;63.63;;
58468;SDS011;44257;44.804;10.220;2024-02-16T13:02:43;88.13;;;66.07;;
58468;SDS011;44257;44.804;10.220;2024-02-16T13:05:09;85.47;;;65.90;;
58468;SDS011;44257;44.804;10.220;2024-02-16T13:07:36;85.40;;;67.32;;
58468;SDS011;44257;44.804;10.220;2024-02-16T13:10:07;88.45;;;68.13;;
58468;SDS011;44257;44.804;10.220;2024-02-16T13:12:34;87.90;;;65.85;;
58468;SDS011;44257;44.804;10.220;2024-02-16T13:15:00;89.38;;;65.88;;
58468;SDS011;44257;44.804;10.220;2024-02-16T13:17:27;85.32;;;64.90;;
58468;SDS011;44257;44.804;10.220;2024-02-16T13:19:53;84.63;;;65.13;;
58468;SDS011;44257;44.804;10.220;2024-02-16T13:22:19;84.63;;;65.93;;
58468;SDS011;44257;44.804;10.220;2024-02-16T13:24:45;85.65;;;64.75;;
58468;SDS011;44257;44.804;10.220;2024-02-16T13:27:11;87.30;;;66.32;;
58468;SDS011;44257;44.804;10.220;2024-02-16T13:29:37;86.70;;;62.85;;
58468;SDS011;44257;44.804;10.220;2024-02-16T13:32:03;89.28;;;67.32;;
58468;SDS011;44257;44.804;10.220;2024-02-16T13:34:29;95.03;;;67.75;;
58468;SDS011;44257;44.804;10.220;2024-02-16T13:36:55;84.63;;;63.97;;
58468;SDS011;44257;44.804;10.220;2024-02-16T13:39:21;88.70;;;66.30;;
58468;SDS011;44257;44.804;10.220;2024-02-16T13:41:48;84.22;;;66.07;;
58468;SDS011;44257;44.804;10.220;2024-02-16T13:44:17;89.22;;;66.60;;
58468;SDS011;44257;44.804;10.220;2024-02-16T13:46:45;89.03;;;67.93;;
58468;SDS011;44257;44.804;10.220;2024-02-16T13:49:15;88.68;;;67.93;;
58468;SDS011;44257;44.804;10.220;2024-02-16T13:51:41;87.70;;;66.75;;
58468;SDS011;44257;44.804;10.220;2024-02-16T13:54:07;86.40;;;65.45;;
58468;SDS011;44257;44.804;10.220;2024-02-16T13:56:39;98.45;;;66.07;;
58468;SDS011;44257;44.804;10.220;2024-02-16T13:59:35;87.65;;;65.50;;
58468;SDS011;44257;44.804;10.220;2024-02-16T14:02:01;97.30;;;68.20;;
58468;SDS011;44257;44.804;10.220;2024-02-16T14:04:27;93.38;;;69.78;;
58468;SDS011;44257;44.804;10.220;2024-02-16T14:06:53;89.43;;;66.93;;
58468;SDS011;44257;44.804;10.220;2024-02-16T14:09:19;89.80;;;66.07;;
58468;SDS011;44257;44.804;10.220;2024-02-16T14:11:45;96.30;;;69.65;;
58468;SDS011;44257;44.804;10.220;2024-02-16T14:14:12;89.40;;;67.57;;
58468;SDS011;44257;44.804;10.220;2024-02-16T14:16:38;94.53;;;70.40;;
58468;SDS011;44257;44.804;10.220;2024-02-16T14:19:05;87.18;;;67.32;;